Time;durP1;ratioP1;P1;durP2;ratioP2;P2;SDS_P1;SDS_P2;PMS_P1;PMS_P2;Temp;Humidity;BMP_temperature;BMP_pressure;BME280_temperature;BME280_humidity;BME280_pressure;Samples;Min_cycle;Max_cycle;Signal;HPM_P1;HPM_P2
2022/07/10 00:00:07;;;;;;;8.20;6.30;;;22.30;36.50;;;;;;5033254;28;20429;-68
2022/07/10 00:02:32;;;;;;;8.43;6.50;;;22.30;36.20;;;;;;5030042;28;20962;-68
2022/07/10 00:04:58;;;;;;;10.97;6.47;;;22.50;35.80;;;;;;5022001;28;20452;-68
2022/07/10 00:07:23;;;;;;;9.60;6.63;;;22.80;36.30;;;;;;5024433;28;20193;-68
2022/07/10 00:09:49;;;;;;;8.20;6.47;;;22.90;36.00;;;;;;5025441;28;20195;-68
2022/07/10 00:12:15;;;;;;;9.97;7.23;;;23.00;36.00;;;;;;5030709;28;20284;-68
2022/07/10 00:14:41;;;;;;;9.97;7.50;;;23.10;35.50;;;;;;5029771;28;20561;-67
2022/07/10 00:17:07;;;;;;;8.27;6.90;;;21.40;33.70;;;;;;5021138;28;20210;-68
2022/07/10 00:19:32;;;;;;;8.83;6.97;;;22.30;35.60;;;;;;5027649;28;20552;-68
2022/07/10 00:21:58;;;;;;;9.77;6.73;;;22.00;37.30;;;;;;5029594;28;20450;-68
2022/07/10 00:24:23;;;;;;;11.00;6.87;;;22.20;37.10;;;;;;5029783;28;20289;-68
2022/07/10 00:26:49;;;;;;;8.40;6.70;;;22.00;36.90;;;;;;5031968;28;20302;-68
2022/07/10 00:29:15;;;;;;;9.03;7.40;;;22.20;37.30;;;;;;5033249;28;20181;-68
2022/07/10 00:31:41;;;;;;;10.40;7.60;;;22.10;37.20;;;;;;5028411;28;20698;-68
2022/07/10 00:34:07;;;;;;;9.23;6.87;;;22.10;37.20;;;;;;5029640;28;20445;-68
2022/07/10 00:36:32;;;;;;;9.50;6.33;;;21.80;38.30;;;;;;5031274;28;20177;-68
2022/07/10 00:38:58;;;;;;;7.97;6.67;;;21.60;39.00;;;;;;5035768;28;20558;-68
2022/07/10 00:41:24;;;;;;;8.10;6.63;;;21.60;38.70;;;;;;5025851;28;20192;-67
2022/07/10 00:43:57;;;;;;;16.20;7.20;;;21.90;38.90;;;;;;5025890;28;20204;-68
2022/07/10 00:46:24;;;;;;;14.10;6.97;;;22.20;38.70;;;;;;5030649;28;20202;-68
2022/07/10 00:48:49;;;;;;;12.40;8.10;;;22.40;37.50;;;;;;5030745;28;20442;-68
2022/07/10 00:51:17;;;;;;;11.30;8.23;;;22.70;36.80;;;;;;5020851;28;20509;-68
2022/07/10 00:53:44;;;;;;;10.50;8.30;;;22.60;36.70;;;;;;5026363;28;20205;-68
2022/07/10 00:56:11;;;;;;;9.10;7.90;;;22.10;37.90;;;;;;5020863;28;20439;-68
2022/07/10 00:58:39;;;;;;;14.80;7.20;;;21.50;39.70;;;;;;5029871;28;20984;-67
2022/07/10 01:01:05;;;;;;;9.73;7.40;;;21.50;40.20;;;;;;5029956;28;20437;-68
2022/07/10 01:03:31;;;;;;;13.50;9.43;;;21.40;40.50;;;;;;5030552;28;20446;-68
2022/07/10 01:05:58;;;;;;;11.03;7.83;;;21.30;40.30;;;;;;5024292;28;20448;-68
2022/07/10 01:08:24;;;;;;;13.10;8.20;;;21.10;41.10;;;;;;5021407;28;20238;-68
2022/07/10 01:10:50;;;;;;;11.73;8.70;;;21.40;40.30;;;;;;5023612;28;20441;-68
2022/07/10 01:13:15;;;;;;;11.83;7.90;;;21.20;40.90;;;;;;5031566;28;20431;-68
2022/07/10 01:15:41;;;;;;;10.80;8.30;;;20.80;42.50;;;;;;5030451;28;20664;-68
2022/07/10 01:18:07;;;;;;;11.07;8.03;;;21.00;41.50;;;;;;5030127;28;20241;-68
2022/07/10 01:20:33;;;;;;;13.40;8.13;;;20.90;42.50;;;;;;5019661;28;20458;-68
2022/07/10 01:23:00;;;;;;;10.43;8.20;;;21.20;41.00;;;;;;5030045;28;20204;-66
2022/07/10 01:25:25;;;;;;;9.40;7.77;;;21.40;41.30;;;;;;5029889;28;20456;-68
2022/07/10 01:27:51;;;;;;;11.10;7.60;;;21.70;40.20;;;;;;5026303;28;20526;-68
2022/07/10 01:30:19;;;;;;;11.03;8.23;;;21.80;39.70;;;;;;5021727;28;20192;-68
2022/07/10 01:32:45;;;;;;;12.07;8.10;;;22.10;39.00;;;;;;5032381;28;20973;-68
2022/07/10 01:35:11;;;;;;;11.57;8.77;;;22.20;38.20;;;;;;5029310;28;20946;-68
2022/07/10 01:37:37;;;;;;;11.70;8.03;;;22.30;38.80;;;;;;5021702;28;20455;-68
2022/07/10 01:40:04;;;;;;;12.07;7.90;;;22.30;38.30;;;;;;5029450;28;20865;-68
2022/07/10 01:42:29;;;;;;;9.90;8.43;;;22.50;37.80;;;;;;5031104;28;20508;-68
2022/07/10 01:44:55;;;;;;;22.07;8.27;;;22.40;38.20;;;;;;5030713;28;20438;-68
2022/07/10 01:47:24;;;;;;;10.20;8.10;;;22.30;38.80;;;;;;5033285;28;20217;-68
2022/07/10 01:49:51;;;;;;;12.13;8.73;;;22.30;38.60;;;;;;5027974;28;20208;-68
2022/07/10 01:52:16;;;;;;;11.07;7.77;;;22.20;38.40;;;;;;5025139;28;20465;-68
2022/07/10 01:54:42;;;;;;;11.40;7.57;;;22.10;38.90;;;;;;5034183;28;20426;-67
2022/07/10 01:57:08;;;;;;;10.40;8.10;;;22.20;38.30;;;;;;5031060;28;20191;-68
2022/07/10 01:59:33;;;;;;;10.20;7.80;;;22.10;38.30;;;;;;5032190;28;20192;-68
2022/07/10 02:01:59;;;;;;;8.60;6.93;;;22.20;37.60;;;;;;5032114;28;20506;-67
2022/07/10 02:04:43;;;;;;;11.07;7.90;;;22.20;38.20;;;;;;5029747;28;20530;-68
2022/07/10 02:07:09;;;;;;;10.40;7.57;;;22.30;38.50;;;;;;5034716;28;20646;-68
2022/07/10 02:09:35;;;;;;;10.83;7.30;;;22.20;37.60;;;;;;5031088;28;20447;-68
2022/07/10 02:12:01;;;;;;;14.17;7.60;;;22.20;37.90;;;;;;5025688;28;20457;-68
2022/07/10 02:14:27;;;;;;;12.07;7.17;;;22.00;37.20;;;;;;5029430;28;20478;-68
2022/07/10 02:16:53;;;;;;;10.43;7.80;;;21.80;37.60;;;;;;5025877;28;20460;-68
2022/07/10 02:19:19;;;;;;;10.23;7.10;;;21.80;38.40;;;;;;5034212;28;20222;-68
2022/07/10 02:21:46;;;;;;;11.87;7.60;;;21.80;38.90;;;;;;5032250;28;20216;-68
2022/07/10 02:24:11;;;;;;;10.53;8.20;;;21.90;38.10;;;;;;5025757;28;20493;-68
2022/07/10 02:26:37;;;;;;;10.73;7.33;;;21.90;38.40;;;;;;5027782;28;20921;-67
2022/07/10 02:29:03;;;;;;;8.40;7.47;;;21.80;38.50;;;;;;5015333;28;20199;-68
2022/07/10 02:31:29;;;;;;;9.40;7.80;;;22.10;37.50;;;;;;5033565;28;20589;-68
2022/07/10 02:33:54;;;;;;;13.40;7.63;;;22.00;38.30;;;;;;5033867;28;20443;-67
2022/07/10 02:36:20;;;;;;;10.30;7.83;;;22.10;37.70;;;;;;5033229;28;20548;-68
2022/07/10 02:38:46;;;;;;;10.73;8.03;;;22.00;38.20;;;;;;5033716;28;20202;-69
2022/07/10 02:41:11;;;;;;;10.97;8.30;;;21.90;38.60;;;;;;5033943;28;20178;-68
2022/07/10 02:43:37;;;;;;;13.93;8.83;;;21.80;38.40;;;;;;5023342;28;20226;-68
2022/07/10 02:46:03;;;;;;;9.73;8.30;;;21.70;39.50;;;;;;5025690;28;20319;-67
2022/07/10 02:48:29;;;;;;;9.90;8.20;;;21.60;38.60;;;;;;5032511;28;20276;-68
2022/07/10 02:50:54;;;;;;;10.40;8.07;;;21.90;38.50;;;;;;5028343;28;20954;-68
2022/07/10 02:53:20;;;;;;;18.73;9.50;;;21.70;38.00;;;;;;5032742;28;20270;-68
2022/07/10 02:55:46;;;;;;;10.97;8.50;;;21.30;40.60;;;;;;5032504;28;20191;-68
2022/07/10 02:58:11;;;;;;;10.40;8.23;;;21.50;39.80;;;;;;5036611;28;20561;-68
2022/07/10 03:00:37;;;;;;;10.67;8.73;;;21.50;39.80;;;;;;5026996;28;20557;-67
2022/07/10 03:03:03;;;;;;;11.97;8.53;;;21.50;40.10;;;;;;5024317;28;20204;-68
2022/07/10 03:05:28;;;;;;;11.80;8.63;;;21.30;39.60;;;;;;5032138;28;20209;-68
2022/07/10 03:07:54;;;;;;;10.17;8.50;;;21.10;39.10;;;;;;5034310;28;20191;-68
2022/07/10 03:10:20;;;;;;;12.67;8.57;;;21.00;41.00;;;;;;5031774;28;20185;-68
2022/07/10 03:12:46;;;;;;;10.60;8.43;;;21.20;40.70;;;;;;5024957;28;20683;-72
2022/07/10 03:15:14;;;;;;;11.73;8.43;;;21.30;38.80;;;;;;5032290;28;20512;-69
2022/07/10 03:17:42;;;;;;;14.13;8.90;;;20.90;40.20;;;;;;5034031;28;20972;-69
2022/07/10 03:20:08;;;;;;;12.27;9.40;;;21.10;39.40;;;;;;5033255;28;20946;-68
2022/07/10 03:22:34;;;;;;;12.50;9.57;;;20.60;42.20;;;;;;5029808;28;20501;-68
2022/07/10 03:25:00;;;;;;;13.57;11.50;;;21.00;41.20;;;;;;5027080;28;20527;-69
2022/07/10 03:27:26;;;;;;;17.67;11.80;;;20.90;41.60;;;;;;5024094;28;20436;-67
2022/07/10 03:29:52;;;;;;;15.50;11.57;;;20.30;43.30;;;;;;5047401;28;20454;-69
2022/07/10 03:32:17;;;;;;;17.50;10.80;;;20.40;42.80;;;;;;5052505;28;20447;-69
2022/07/10 03:34:43;;;;;;;17.77;11.73;;;20.60;43.90;;;;;;5040717;28;20217;-69
2022/07/10 03:37:09;;;;;;;16.47;10.80;;;21.00;42.50;;;;;;5023991;28;20636;-67
2022/07/10 03:39:34;;;;;;;12.33;10.97;;;20.70;43.00;;;;;;5030913;28;20639;-69
2022/07/10 03:42:00;;;;;;;15.40;12.30;;;21.00;42.60;;;;;;5031806;28;20251;-67
2022/07/10 03:44:26;;;;;;;17.70;12.77;;;21.10;41.70;;;;;;5031807;28;20202;-69
2022/07/10 03:46:51;;;;;;;15.23;11.70;;;21.40;41.20;;;;;;5033864;28;20204;-69
2022/07/10 03:49:17;;;;;;;14.57;11.47;;;21.40;41.00;;;;;;5023924;28;20193;-69
2022/07/10 03:51:42;;;;;;;16.17;12.77;;;21.50;40.60;;;;;;5024222;28;20221;-69
2022/07/10 03:54:08;;;;;;;20.30;13.50;;;21.70;40.20;;;;;;5028558;28;20184;-69
2022/07/10 03:59:18;;;;;;;20.40;14.63;;;21.90;40.00;;;;;;5029912;28;20248;-69
2022/07/10 04:01:44;;;;;;;19.50;15.57;;;22.00;39.10;;;;;;5031056;28;20487;-69
2022/07/10 04:04:09;;;;;;;18.83;15.00;;;21.50;40.40;;;;;;5021312;28;20523;-68
2022/07/10 04:06:38;;;;;;;24.30;14.47;;;21.40;41.30;;;;;;5025028;28;20604;-68
2022/07/10 04:09:04;;;;;;;22.40;14.50;;;21.40;41.70;;;;;;5027393;28;20585;-68
2022/07/10 04:11:30;;;;;;;20.00;13.97;;;21.60;41.30;;;;;;5024366;28;20416;-68
2022/07/10 04:13:56;;;;;;;23.47;15.03;;;21.10;42.00;;;;;;5031336;28;20804;-68
2022/07/10 04:16:25;;;;;;;20.60;14.90;;;21.00;42.70;;;;;;5022937;28;20521;-69
2022/07/10 04:18:50;;;;;;;18.53;15.23;;;20.50;45.50;;;;;;4998858;28;20239;-69
2022/07/10 04:21:16;;;;;;;17.40;14.67;;;20.50;45.70;;;;;;5031403;28;20459;-68
2022/07/10 04:23:42;;;;;;;19.87;14.10;;;20.60;45.20;;;;;;5031028;28;20236;-68
2022/07/10 04:26:07;;;;;;;19.27;14.43;;;21.10;43.90;;;;;;5032594;28;20182;-68
2022/07/10 04:28:33;;;;;;;28.70;14.70;;;21.40;43.00;;;;;;5027099;28;20266;-69
2022/07/10 04:30:59;;;;;;;21.13;15.60;;;21.60;42.30;;;;;;5023074;28;20312;-69
2022/07/10 04:33:26;;;;;;;20.20;13.87;;;21.50;41.40;;;;;;5023637;28;20714;-68
2022/07/10 04:35:52;;;;;;;22.43;14.93;;;21.20;42.80;;;;;;5031446;28;20195;-69
2022/07/10 04:38:17;;;;;;;21.73;14.97;;;20.90;42.50;;;;;;5031379;28;20467;-69
2022/07/10 04:40:43;;;;;;;19.03;15.30;;;20.50;44.70;;;;;;5023606;28;20195;-68
2022/07/10 04:43:10;;;;;;;19.63;14.50;;;20.30;46.60;;;;;;5022555;28;20223;-68
2022/07/10 04:45:39;;;;;;;19.87;14.27;;;20.00;47.80;;;;;;5031486;28;20707;-68
2022/07/10 04:48:05;;;;;;;19.97;14.97;;;20.10;48.60;;;;;;5031867;28;20429;-68
2022/07/10 04:50:31;;;;;;;25.10;15.07;;;20.20;46.80;;;;;;5025586;28;20923;-68
2022/07/10 04:52:57;;;;;;;18.50;13.73;;;20.80;45.50;;;;;;5027652;28;20493;-69
2022/07/10 04:55:23;;;;;;;20.17;14.63;;;21.30;43.30;;;;;;5019221;28;20564;-69
2022/07/10 04:57:48;;;;;;;17.30;13.37;;;21.60;42.70;;;;;;5026577;28;20464;-68
2022/07/10 05:00:15;;;;;;;16.13;13.10;;;20.60;44.60;;;;;;5030525;28;20191;-68
2022/07/10 05:02:41;;;;;;;18.50;13.60;;;20.10;47.30;;;;;;5012287;28;20871;-69
2022/07/10 05:05:07;;;;;;;18.97;13.90;;;19.80;48.70;;;;;;5031095;28;20424;-68
2022/07/10 05:07:32;;;;;;;19.10;13.17;;;19.40;50.30;;;;;;5025953;28;20188;-69
2022/07/10 05:09:58;;;;;;;22.10;13.20;;;19.00;52.90;;;;;;5027945;28;20822;-69
2022/07/10 05:12:24;;;;;;;20.40;14.07;;;19.20;53.10;;;;;;5026410;28;20216;-68
2022/07/10 05:14:49;;;;;;;20.47;13.67;;;19.00;53.80;;;;;;5026823;28;20419;-68
2022/07/10 05:17:15;;;;;;;16.00;12.90;;;18.80;55.30;;;;;;5030437;28;20256;-68
2022/07/10 05:19:40;;;;;;;20.40;13.00;;;19.00;55.20;;;;;;5024038;28;20269;-68
2022/07/10 05:22:07;;;;;;;20.70;11.53;;;19.50;52.10;;;;;;5027279;28;20207;-68
2022/07/10 05:24:33;;;;;;;27.43;13.03;;;20.30;48.40;;;;;;5034627;28;20571;-68
2022/07/10 05:26:58;;;;;;;16.23;12.50;;;20.50;46.40;;;;;;5022399;28;20431;-68
2022/07/10 05:29:24;;;;;;;18.10;12.10;;;19.80;48.60;;;;;;5031059;28;20597;-68
2022/07/10 05:31:49;;;;;;;20.73;12.90;;;19.60;50.20;;;;;;5030221;28;20192;-68
2022/07/10 05:34:15;;;;;;;19.80;12.23;;;18.90;54.10;;;;;;5031016;28;20204;-68
2022/07/10 05:36:41;;;;;;;17.60;12.00;;;18.70;55.50;;;;;;5030419;28;20242;-69
2022/07/10 05:39:06;;;;;;;18.00;12.00;;;19.00;54.30;;;;;;5022853;28;20200;-68
2022/07/10 05:41:32;;;;;;;18.10;12.40;;;19.60;50.40;;;;;;5032048;28;20183;-67
2022/07/10 05:44:01;;;;;;;17.53;10.80;;;19.90;48.10;;;;;;5028621;28;20181;-68
2022/07/10 05:46:27;;;;;;;19.37;10.80;;;19.70;49.30;;;;;;5023900;28;20402;-68
2022/07/10 05:48:52;;;;;;;14.70;11.10;;;19.90;49.70;;;;;;5030982;28;20850;-68
2022/07/10 05:51:18;;;;;;;15.77;10.73;;;20.30;45.70;;;;;;5029652;28;20185;-68
2022/07/10 05:53:44;;;;;;;16.40;10.43;;;20.00;46.60;;;;;;5018352;28;20217;-68
2022/07/10 05:56:09;;;;;;;12.90;9.33;;;19.60;47.80;;;;;;5030138;28;20188;-68
2022/07/10 05:58:35;;;;;;;17.70;10.60;;;19.20;49.40;;;;;;5031072;28;20197;-68
2022/07/10 06:01:01;;;;;;;14.20;9.47;;;19.30;50.10;;;;;;5030449;28;20177;-68
2022/07/10 06:03:26;;;;;;;15.23;9.30;;;19.30;50.10;;;;;;5031604;28;20193;-68
2022/07/10 06:05:52;;;;;;;15.50;8.83;;;19.90;48.90;;;;;;5030954;28;20177;-68
2022/07/10 06:08:18;;;;;;;15.70;9.23;;;20.50;45.70;;;;;;5031491;28;20736;-69
2022/07/10 06:10:44;;;;;;;14.07;8.63;;;21.00;42.60;;;;;;5030776;28;20263;-68
2022/07/10 06:13:11;;;;;;;12.37;7.90;;;21.10;41.80;;;;;;5029788;28;20483;-68
2022/07/10 06:15:36;;;;;;;12.90;8.87;;;20.00;43.60;;;;;;5024698;28;20691;-68
2022/07/10 06:18:02;;;;;;;17.27;8.20;;;19.80;43.60;;;;;;5031422;28;20561;-68
2022/07/10 06:20:28;;;;;;;15.20;7.47;;;20.40;43.40;;;;;;5025980;28;20320;-67
2022/07/10 06:22:54;;;;;;;17.80;7.40;;;21.00;41.70;;;;;;5025274;28;20536;-69
2022/07/10 06:25:20;;;;;;;12.40;6.97;;;21.30;40.80;;;;;;5030743;28;20173;-69
2022/07/10 06:27:46;;;;;;;13.17;6.90;;;21.60;39.90;;;;;;5030699;28;20180;-69
2022/07/10 06:30:12;;;;;;;13.37;7.00;;;21.50;38.00;;;;;;5021977;28;20438;-69
2022/07/10 06:32:39;;;;;;;11.87;7.50;;;21.50;38.40;;;;;;5030585;28;20239;-68
2022/07/10 06:35:05;;;;;;;14.73;7.37;;;21.50;38.30;;;;;;5034428;28;20276;-68
2022/07/10 06:37:31;;;;;;;13.83;7.17;;;20.60;41.50;;;;;;5034561;28;20458;-68
2022/07/10 06:39:57;;;;;;;21.33;7.53;;;20.60;40.80;;;;;;5033625;28;20430;-67
2022/07/10 06:42:22;;;;;;;9.83;6.23;;;20.90;39.90;;;;;;5032882;28;20274;-68
2022/07/10 06:44:48;;;;;;;11.53;7.40;;;21.30;38.90;;;;;;5021156;28;20195;-69
2022/07/10 06:50:01;;;;;;;10.40;6.57;;;21.40;37.40;;;;;;5034973;28;20179;-69
2022/07/10 06:52:27;;;;;;;10.90;6.30;;;21.20;39.20;;;;;;5040770;28;21107;-68
2022/07/10 06:54:53;;;;;;;8.30;6.10;;;21.20;37.80;;;;;;5032388;28;20432;-69
2022/07/10 06:57:19;;;;;;;11.10;6.80;;;21.40;38.40;;;;;;5018993;28;21089;-69
2022/07/10 06:59:45;;;;;;;13.23;6.40;;;21.70;35.50;;;;;;5053466;28;20425;-69
2022/07/10 07:02:11;;;;;;;9.30;5.17;;;21.70;36.50;;;;;;5042889;28;20996;-67
2022/07/10 07:04:37;;;;;;;11.10;5.70;;;20.70;37.70;;;;;;5041170;28;20441;-68
2022/07/10 07:07:03;;;;;;;9.37;5.57;;;21.30;36.50;;;;;;5036411;28;20273;-69
2022/07/10 07:09:29;;;;;;;7.30;5.30;;;21.50;35.80;;;;;;5039724;28;20188;-68
2022/07/10 07:11:54;;;;;;;11.00;5.00;;;21.30;35.70;;;;;;5035291;28;20531;-69
2022/07/10 07:14:20;;;;;;;12.00;5.03;;;21.00;36.90;;;;;;5047273;28;20647;-68
2022/07/10 07:16:56;;;;;;;9.73;4.67;;;21.20;35.60;;;;;;5041960;28;20207;-68
2022/07/10 07:19:30;;;;;;;10.10;4.43;;;21.40;34.70;;;;;;5039608;28;20202;-68
2022/07/10 07:24:44;;;;;;;14.13;4.87;;;21.30;33.80;;;;;;5043318;28;20438;-69
2022/07/10 07:27:10;;;;;;;9.50;4.90;;;21.70;34.40;;;;;;5033229;28;20483;-68
2022/07/10 07:29:37;;;;;;;8.73;4.97;;;21.70;32.70;;;;;;5027073;28;20433;-69
2022/07/10 07:32:03;;;;;;;11.37;4.50;;;20.70;33.90;;;;;;5033637;28;20963;-68
2022/07/10 07:34:28;;;;;;;12.23;4.77;;;21.00;34.20;;;;;;5033826;28;20431;-69
2022/07/10 07:36:54;;;;;;;9.80;4.60;;;21.60;34.40;;;;;;5031242;28;20483;-67
2022/07/10 07:39:19;;;;;;;5.40;3.70;;;21.60;33.10;;;;;;5031023;28;20562;-69
2022/07/10 07:41:45;;;;;;;5.67;4.20;;;21.90;32.10;;;;;;5043189;28;20330;-69
2022/07/10 07:44:12;;;;;;;9.10;5.13;;;22.10;33.00;;;;;;5041197;28;20185;-68
2022/07/10 07:46:37;;;;;;;6.80;4.50;;;22.10;30.50;;;;;;5033681;28;20247;-69
2022/07/10 07:49:03;;;;;;;12.80;5.03;;;21.90;31.50;;;;;;5030419;28;20529;-68
2022/07/10 07:51:29;;;;;;;9.43;4.30;;;21.10;32.70;;;;;;5031710;28;20181;-68
2022/07/10 07:53:54;;;;;;;12.13;4.63;;;20.70;35.30;;;;;;5031676;28;20249;-67
2022/07/10 07:56:20;;;;;;;11.67;4.17;;;21.30;33.40;;;;;;5031259;28;20192;-69
2022/07/10 07:58:45;;;;;;;8.37;4.87;;;21.70;32.00;;;;;;5030551;28;20212;-68
2022/07/10 08:01:11;;;;;;;7.13;4.40;;;21.40;32.60;;;;;;5040199;28;20265;-68
2022/07/10 08:03:37;;;;;;;8.40;4.30;;;20.80;34.00;;;;;;5027214;28;20211;-68
2022/07/10 08:06:03;;;;;;;7.80;4.53;;;20.70;33.60;;;;;;5033482;28;20621;-69
2022/07/10 08:08:28;;;;;;;7.80;4.57;;;20.60;34.30;;;;;;5033520;28;20184;-69
2022/07/10 08:10:54;;;;;;;12.70;4.50;;;19.70;35.60;;;;;;5035541;28;20441;-68
2022/07/10 08:13:19;;;;;;;7.33;5.30;;;19.70;37.10;;;;;;5036558;28;20282;-68
2022/07/10 08:15:45;;;;;;;12.47;5.33;;;19.90;37.10;;;;;;5037253;28;20195;-68
2022/07/10 08:18:11;;;;;;;10.43;4.80;;;20.40;36.40;;;;;;5033843;28;20203;-69
2022/07/10 08:20:36;;;;;;;17.60;5.00;;;20.80;35.40;;;;;;5030173;28;20194;-69
2022/07/10 08:23:02;;;;;;;12.37;5.17;;;19.80;35.80;;;;;;5032843;28;20199;-69
2022/07/10 08:25:32;;;;;;;11.33;4.37;;;19.20;37.90;;;;;;5026010;28;20185;-68
2022/07/10 08:28:03;;;;;;;7.67;4.70;;;19.40;39.20;;;;;;5031115;28;20198;-68
2022/07/10 08:30:29;;;;;;;11.33;4.40;;;20.10;36.80;;;;;;5039997;28;20418;-69
2022/07/10 08:32:56;;;;;;;9.27;4.90;;;20.30;37.30;;;;;;5030184;28;20450;-69
2022/07/10 08:35:21;;;;;;;6.87;4.43;;;21.20;34.60;;;;;;5036989;28;20488;-69
2022/07/10 08:37:47;;;;;;;9.20;4.80;;;21.30;31.70;;;;;;5031701;28;20476;-68
2022/07/10 08:40:14;;;;;;;8.53;4.30;;;20.00;33.70;;;;;;5031870;28;20228;-69
2022/07/10 08:42:46;;;;;;;8.33;4.60;;;20.50;33.70;;;;;;5026597;28;20216;-67
2022/07/10 08:45:13;;;;;;;9.63;4.40;;;20.70;33.50;;;;;;5032890;28;20924;-68
2022/07/10 08:47:41;;;;;;;11.03;4.87;;;21.00;32.30;;;;;;5031020;28;20503;-68
2022/07/10 08:50:28;;;;;;;7.20;4.30;;;20.90;32.80;;;;;;5026745;28;20446;-69
2022/07/10 08:53:13;;;;;;;10.37;4.67;;;21.90;31.90;;;;;;5031493;28;20472;-67
2022/07/10 08:55:39;;;;;;;8.47;4.47;;;22.20;30.00;;;;;;5025989;28;20521;-68
2022/07/10 08:58:07;;;;;;;7.37;4.10;;;21.30;30.90;;;;;;5030003;28;20655;-68
2022/07/10 09:00:33;;;;;;;7.50;4.33;;;21.10;31.90;;;;;;5036313;28;20446;-69
2022/07/10 09:02:59;;;;;;;8.63;4.40;;;21.80;31.10;;;;;;5046076;28;20462;-69
2022/07/10 09:05:26;;;;;;;15.07;4.47;;;22.20;29.30;;;;;;5031768;28;20219;-69
2022/07/10 09:07:53;;;;;;;8.57;4.07;;;22.40;29.50;;;;;;5042459;28;20947;-68
2022/07/10 09:10:22;;;;;;;9.73;4.40;;;21.70;29.60;;;;;;5042082;28;20461;-69
2022/07/10 09:13:01;;;;;;;7.30;4.37;;;21.30;30.00;;;;;;5049780;28;20519;-68
2022/07/10 09:15:32;;;;;;;9.77;4.17;;;20.60;31.90;;;;;;5029439;28;20433;-68
2022/07/10 09:18:05;;;;;;;8.33;4.27;;;21.50;32.30;;;;;;5038697;28;20550;-68
2022/07/10 09:20:44;;;;;;;9.00;4.40;;;21.90;30.00;;;;;;5027143;28;20434;-69
2022/07/10 09:23:22;;;;;;;6.27;4.27;;;22.30;29.70;;;;;;5026491;28;20447;-68
2022/07/10 09:25:52;;;;;;;6.37;4.37;;;22.60;28.40;;;;;;5032957;28;20509;-69
2022/07/10 09:28:20;;;;;;;11.70;4.50;;;21.70;29.20;;;;;;5036127;28;20515;-69
2022/07/10 09:30:46;;;;;;;13.10;4.43;;;22.30;30.30;;;;;;5028414;28;20976;-69
2022/07/10 09:33:26;;;;;;;9.20;4.30;;;22.60;27.80;;;;;;5025267;28;20454;-69
2022/07/10 09:38:44;;;;;;;8.73;4.47;;;22.40;27.70;;;;;;5027433;28;20557;-68
2022/07/10 09:41:22;;;;;;;5.40;4.40;;;22.80;26.30;;;;;;5026242;28;20432;-69
2022/07/10 09:43:48;;;;;;;8.13;4.37;;;21.60;27.80;;;;;;5030691;28;20453;-68
2022/07/10 09:46:18;;;;;;;7.33;4.33;;;21.10;29.40;;;;;;5030580;28;20969;-68
2022/07/10 09:48:44;;;;;;;13.70;4.57;;;21.70;28.10;;;;;;5016848;28;20196;-69
2022/07/10 09:51:11;;;;;;;7.60;4.30;;;21.70;26.50;;;;;;5032603;28;20476;-69
2022/07/10 09:53:41;;;;;;;5.80;4.40;;;21.60;27.10;;;;;;5031271;28;20280;-69
2022/07/10 09:56:12;;;;;;;9.67;4.63;;;20.90;27.50;;;;;;5030677;28;20438;-69
2022/07/10 09:58:39;;;;;;;11.20;4.67;;;21.10;27.20;;;;;;5029680;28;20468;-69
2022/07/10 10:01:08;;;;;;;5.40;4.23;;;21.60;27.10;;;;;;5045229;28;20473;-68
2022/07/10 10:03:38;;;;;;;6.43;4.20;;;22.00;27.40;;;;;;5042838;28;21122;-69
2022/07/10 10:06:14;;;;;;;8.10;4.00;;;21.60;26.90;;;;;;5039750;28;20421;-68
2022/07/10 10:08:56;;;;;;;7.37;4.10;;;21.40;27.00;;;;;;5030164;28;20448;-67
2022/07/10 10:11:25;;;;;;;6.80;4.00;;;21.10;27.30;;;;;;5022517;28;20582;-69
2022/07/10 10:13:52;;;;;;;9.27;4.20;;;21.20;28.60;;;;;;5028774;28;20442;-68
2022/07/10 10:16:19;;;;;;;9.20;4.17;;;21.30;26.90;;;;;;5030555;28;20559;-68
2022/07/10 10:21:30;;;;;;;8.73;4.10;;;20.90;28.60;;;;;;5027644;28;20429;-68
2022/07/10 10:23:56;;;;;;;7.63;3.90;;;21.20;27.10;;;;;;5025428;28;20434;-68
2022/07/10 10:26:24;;;;;;;6.10;3.70;;;20.80;26.90;;;;;;5033289;28;20190;-68
2022/07/10 10:28:54;;;;;;;6.80;4.30;;;20.90;26.60;;;;;;5030029;28;20195;-68
2022/07/10 10:31:24;;;;;;;8.13;4.33;;;21.10;26.80;;;;;;5028785;28;20488;-68
2022/07/10 10:33:55;;;;;;;8.73;4.17;;;21.20;28.30;;;;;;5024076;28;20441;-70
2022/07/10 10:36:44;;;;;;;8.03;4.20;;;21.50;27.10;;;;;;5018841;28;20434;-69
2022/07/10 10:39:13;;;;;;;6.63;3.87;;;21.40;27.00;;;;;;5024007;28;20463;-68
2022/07/10 10:41:54;;;;;;;8.00;3.83;;;22.50;26.40;;;;;;5031519;28;20444;-68
2022/07/10 10:44:24;;;;;;;13.63;3.60;;;23.30;23.70;;;;;;5035142;28;20803;-69
2022/07/10 10:46:49;;;;;;;8.87;3.50;;;23.20;24.90;;;;;;5037465;28;20809;-68
2022/07/10 10:49:16;;;;;;;6.57;3.70;;;22.80;24.20;;;;;;5026162;28;20445;-68
2022/07/10 10:52:03;;;;;;;4.33;3.40;;;21.40;25.20;;;;;;5020876;28;20191;-69
2022/07/10 10:54:30;;;;;;;8.83;3.60;;;22.10;25.30;;;;;;5023598;28;20441;-69
2022/07/10 10:57:12;;;;;;;4.67;3.60;;;22.30;24.20;;;;;;5032678;28;20801;-68
2022/07/10 10:59:50;;;;;;;9.50;4.10;;;21.70;24.70;;;;;;5025117;28;20535;-67
2022/07/10 11:02:29;;;;;;;7.73;3.97;;;21.40;25.60;;;;;;5032007;28;21048;-68
2022/07/10 11:05:18;;;;;;;6.37;3.73;;;21.50;26.70;;;;;;5026768;28;20453;-67
2022/07/10 11:08:04;;;;;;;6.30;3.50;;;22.20;25.90;;;;;;5025469;28;20422;-68
2022/07/10 11:10:40;;;;;;;5.03;3.30;;;23.10;22.60;;;;;;5021285;28;20539;-68
2022/07/10 11:13:12;;;;;;;7.03;3.50;;;22.10;24.10;;;;;;5017151;28;21006;-68
2022/07/10 11:15:43;;;;;;;5.40;3.33;;;22.30;24.40;;;;;;5019560;28;20501;-68
2022/07/10 11:18:10;;;;;;;6.30;3.90;;;23.00;26.40;;;;;;5022232;28;20470;-68
2022/07/10 11:20:50;;;;;;;7.20;4.07;;;23.50;22.20;;;;;;5031645;28;20431;-68
2022/07/10 11:23:37;;;;;;;7.40;3.50;;;22.90;24.00;;;;;;5027954;28;20451;-68
2022/07/10 11:26:07;;;;;;;6.00;3.90;;;22.80;23.70;;;;;;5028135;28;20438;-68
2022/07/10 11:28:54;;;;;;;6.43;4.00;;;22.20;24.00;;;;;;5028339;28;21001;-68
2022/07/10 11:31:22;;;;;;;5.20;3.77;;;22.50;25.40;;;;;;5028594;28;20804;-68
2022/07/10 11:33:51;;;;;;;10.27;4.40;;;24.00;23.70;;;;;;5021936;28;20469;-67
2022/07/10 11:36:25;;;;;;;4.90;3.60;;;24.90;23.10;;;;;;5029594;28;20435;-69
2022/07/10 11:38:57;;;;;;;8.80;3.53;;;26.00;23.00;;;;;;5022009;28;20477;-69
2022/07/10 11:41:23;;;;;;;13.20;3.97;;;25.40;20.40;;;;;;5020298;28;20447;-68
2022/07/10 11:43:54;;;;;;;12.50;3.73;;;24.70;21.70;;;;;;5029856;28;20434;-69
2022/07/10 11:46:25;;;;;;;4.67;3.63;;;25.30;20.30;;;;;;5027921;28;20192;-69
2022/07/10 11:48:56;;;;;;;4.70;3.40;;;25.70;20.90;;;;;;5015166;28;20435;-69
2022/07/10 11:51:26;;;;;;;3.73;3.00;;;27.30;19.20;;;;;;5022562;28;20529;-68
2022/07/10 11:54:01;;;;;;;10.00;4.90;;;28.20;18.40;;;;;;5021709;28;20574;-69
2022/07/10 11:56:38;;;;;;;5.13;3.27;;;27.70;17.30;;;;;;5030406;28;20521;-69
2022/07/10 11:59:09;;;;;;;4.37;3.43;;;25.10;21.20;;;;;;5020241;28;20550;-68
2022/07/10 12:01:44;;;;;;;6.57;3.27;;;24.50;21.60;;;;;;5031320;28;20462;-69
2022/07/10 12:04:10;;;;;;;7.80;3.50;;;24.00;22.70;;;;;;5031247;28;20395;-68
2022/07/10 12:06:38;;;;;;;9.23;3.63;;;23.60;23.20;;;;;;5031084;28;20434;-69
2022/07/10 12:09:06;;;;;;;6.47;3.57;;;24.10;21.80;;;;;;5028880;28;20449;-68
2022/07/10 12:11:32;;;;;;;5.97;3.80;;;24.90;22.70;;;;;;5024154;28;20418;-68
2022/07/10 12:14:14;;;;;;;4.57;3.27;;;25.80;21.20;;;;;;5030955;28;20423;-68
2022/07/10 12:16:42;;;;;;;6.00;3.10;;;27.00;20.50;;;;;;5031173;28;20449;-67
2022/07/10 12:19:08;;;;;;;6.10;3.50;;;25.00;21.80;;;;;;5030533;28;20467;-68
2022/07/10 12:21:35;;;;;;;7.53;3.37;;;25.10;22.10;;;;;;5029869;28;20450;-68
2022/07/10 12:24:02;;;;;;;7.37;3.50;;;25.90;20.90;;;;;;5013652;28;20947;-69
2022/07/10 12:26:36;;;;;;;10.00;3.30;;;26.30;17.80;;;;;;5026869;28;20437;-68
2022/07/10 12:29:03;;;;;;;6.40;3.20;;;25.90;18.30;;;;;;5028700;28;20885;-69
2022/07/10 12:31:31;;;;;;;4.57;3.10;;;25.10;19.80;;;;;;5021387;28;20449;-67
2022/07/10 12:34:02;;;;;;;5.37;3.50;;;26.00;20.40;;;;;;5024103;28;20517;-69
2022/07/10 12:36:46;;;;;;;7.27;3.63;;;26.60;19.80;;;;;;5017954;28;20436;-68
2022/07/10 12:39:16;;;;;;;5.80;3.50;;;25.60;19.50;;;;;;5028753;28;20588;-68
2022/07/10 12:41:58;;;;;;;5.00;3.60;;;24.50;20.30;;;;;;4991415;28;1121802;-68
2022/07/10 12:44:39;;;;;;;9.83;3.40;;;24.50;21.20;;;;;;5022201;28;20437;-69
2022/07/10 12:47:11;;;;;;;4.60;3.33;;;26.10;18.10;;;;;;5019711;28;20431;-69
2022/07/10 12:49:56;;;;;;;6.10;3.20;;;27.30;18.50;;;;;;5027230;28;20468;-68
2022/07/10 12:52:29;;;;;;;5.37;3.03;;;28.50;17.20;;;;;;5026396;28;20827;-69
2022/07/10 12:55:16;;;;;;;6.17;3.00;;;28.20;17.30;;;;;;5023301;28;20439;-68